Time;durP1;ratioP1;P1;durP2;ratioP2;P2;SDS_P1;SDS_P2;PMS_P1;PMS_P2;Temp;Humidity;BMP_temperature;BMP_pressure;BME280_temperature;BME280_humidity;BME280_pressure;Samples;Min_cycle;Max_cycle;Signal;HPM_P1;HPM_P2
2021/11/07 00:01:58;;;;;;;29.17;2.30;;;;;;;;;;4987131;28;20037;-58
2021/11/07 00:04:41;;;;;;;12.45;1.77;;;;;;;;;;4996284;28;20565;-57
2021/11/07 00:10:22;;;;;;;7.88;1.65;;;;;;;;;;4966409;28;20041;-59
2021/11/07 00:12:28;;;;;;;8.95;1.70;;;;;;;;;;4993337;28;20052;-59
2021/11/07 00:14:53;;;;;;;20.27;1.65;;;;;;;;;;4990807;28;20030;-59
2021/11/07 00:17:25;;;;;;;7.25;1.63;;;;;;;;;;4997774;28;20029;-59
2021/11/07 00:19:56;;;;;;;4.53;1.58;;;;;;;;;;4996283;28;20057;-59
2021/11/07 00:28:04;;;;;;;18.52;1.63;;;;;;;;;;4999145;28;20108;-59
2021/11/07 00:35:54;;;;;;;6.13;1.80;;;;;;;;;;4997237;28;20037;-59
2021/11/07 00:38:30;;;;;;;10.65;1.42;;;;;;;;;;4986195;28;20104;-57
2021/11/07 00:41:09;;;;;;;4.55;1.40;;;;;;;;;;4984633;28;20034;-59
2021/11/07 00:43:42;;;;;;;4.10;1.45;;;;;;;;;;4985597;28;20045;-57
2021/11/07 00:46:28;;;;;;;11.60;1.15;;;;;;;;;;4995961;28;20041;-56
2021/11/07 00:49:00;;;;;;;12.93;2.08;;;;;;;;;;4986067;28;20019;-59
2021/11/07 00:56:56;;;;;;;23.20;3.38;;;;;;;;;;4976803;28;20025;-58
2021/11/07 01:02:00;;;;;;;21.50;3.58;;;;;;;;;;4978855;28;20161;-60
2021/11/07 01:04:27;;;;;;;18.25;3.63;;;;;;;;;;4996100;28;20098;-60
2021/11/07 01:06:53;;;;;;;19.08;4.03;;;;;;;;;;4969007;28;20029;-58
2021/11/07 01:09:19;;;;;;;25.13;3.60;;;;;;;;;;4995418;28;21993;-59
2021/11/07 01:11:49;;;;;;;21.55;3.30;;;;;;;;;;4965536;28;20137;-58
2021/11/07 01:14:21;;;;;;;26.73;4.32;;;;;;;;;;4996054;28;20033;-58
2021/11/07 01:16:49;;;;;;;25.98;3.58;;;;;;;;;;4981523;28;20084;-57
2021/11/07 01:19:15;;;;;;;19.17;3.75;;;;;;;;;;4994434;28;20069;-58
2021/11/07 01:21:45;;;;;;;27.02;4.68;;;;;;;;;;4964012;28;20149;-58
2021/11/07 01:24:27;;;;;;;25.90;3.83;;;;;;;;;;4995729;28;20239;-57
2021/11/07 01:27:04;;;;;;;22.17;3.45;;;;;;;;;;4994969;28;20099;-59
2021/11/07 01:29:30;;;;;;;13.57;3.95;;;;;;;;;;4979980;28;20048;-58
2021/11/07 01:32:02;;;;;;;31.92;3.53;;;;;;;;;;4981561;28;20041;-58
2021/11/07 01:34:47;;;;;;;31.58;4.10;;;;;;;;;;4991137;28;20077;-58
2021/11/07 01:37:16;;;;;;;29.58;4.70;;;;;;;;;;4980960;28;20044;-58
2021/11/07 01:39:59;;;;;;;21.17;4.20;;;;;;;;;;4980855;28;20041;-61
2021/11/07 01:42:39;;;;;;;31.83;3.75;;;;;;;;;;4996082;28;20144;-60
2021/11/07 01:45:11;;;;;;;11.88;2.70;;;;;;;;;;4965266;28;20545;-61
2021/11/07 01:47:48;;;;;;;24.88;3.60;;;;;;;;;;4985409;28;20305;-58
2021/11/07 01:50:13;;;;;;;22.70;3.30;;;;;;;;;;4996091;28;20125;-60
2021/11/07 01:52:44;;;;;;;27.95;4.25;;;;;;;;;;4971152;28;20408;-58
2021/11/07 01:55:18;;;;;;;21.95;3.95;;;;;;;;;;4977657;28;20042;-58
2021/11/07 01:57:45;;;;;;;16.48;3.50;;;;;;;;;;4998667;28;20033;-59
2021/11/07 02:00:16;;;;;;;14.20;3.08;;;;;;;;;;4995828;28;20038;-58
2021/11/07 02:02:44;;;;;;;30.88;3.53;;;;;;;;;;4995473;28;20034;-57
2021/11/07 02:05:14;;;;;;;25.48;3.55;;;;;;;;;;4970641;28;21276;-59
2021/11/07 02:07:40;;;;;;;19.15;3.25;;;;;;;;;;4982674;28;20026;-58
2021/11/07 02:10:08;;;;;;;29.27;3.80;;;;;;;;;;4980921;28;22180;-59
2021/11/07 02:12:36;;;;;;;20.05;3.75;;;;;;;;;;4996388;28;20046;-61
2021/11/07 02:15:04;;;;;;;19.02;3.60;;;;;;;;;;4996420;28;20026;-58
2021/11/07 02:17:30;;;;;;;10.27;3.50;;;;;;;;;;4996348;28;20119;-61
2021/11/07 02:19:57;;;;;;;21.90;3.30;;;;;;;;;;4994522;28;20038;-58
2021/11/07 02:22:25;;;;;;;19.80;3.20;;;;;;;;;;4979318;28;20128;-60
2021/11/07 02:24:51;;;;;;;32.10;3.90;;;;;;;;;;4977375;28;20021;-59
2021/11/07 02:27:19;;;;;;;25.23;3.28;;;;;;;;;;4961323;28;20504;-56
2021/11/07 02:29:44;;;;;;;21.40;3.35;;;;;;;;;;4979100;28;20033;-59
2021/11/07 02:32:12;;;;;;;24.70;3.88;;;;;;;;;;4979943;28;20033;-60
2021/11/07 02:34:42;;;;;;;14.82;3.22;;;;;;;;;;4951155;28;20507;-59
2021/11/07 02:37:08;;;;;;;27.63;3.78;;;;;;;;;;4998193;28;20168;-59
2021/11/07 02:39:35;;;;;;;15.35;2.80;;;;;;;;;;4987883;28;20039;-60
2021/11/07 02:42:01;;;;;;;21.70;3.05;;;;;;;;;;4985524;28;20656;-59
2021/11/07 02:44:39;;;;;;;26.83;3.60;;;;;;;;;;5000736;28;20038;-59
2021/11/07 02:47:05;;;;;;;15.75;3.30;;;;;;;;;;4996852;28;20056;-60
2021/11/07 02:49:36;;;;;;;21.63;3.08;;;;;;;;;;4980570;28;20045;-60
2021/11/07 02:52:03;;;;;;;23.60;3.55;;;;;;;;;;4995229;28;20038;-59
2021/11/07 02:54:32;;;;;;;24.88;3.72;;;;;;;;;;5000058;28;20034;-58
2021/11/07 02:57:01;;;;;;;21.80;3.10;;;;;;;;;;4972001;28;20038;-61
2021/11/07 02:59:28;;;;;;;27.98;3.03;;;;;;;;;;4980509;28;20033;-58
2021/11/07 03:01:59;;;;;;;23.58;2.83;;;;;;;;;;4985728;28;22075;-60
2021/11/07 03:04:34;;;;;;;29.27;3.45;;;;;;;;;;4998682;28;20030;-62
2021/11/07 03:07:03;;;;;;;31.20;3.35;;;;;;;;;;4974074;28;20029;-58
2021/11/07 03:09:32;;;;;;;23.40;3.30;;;;;;;;;;5000860;28;20034;-58
2021/11/07 03:11:58;;;;;;;34.05;3.78;;;;;;;;;;4973510;28;20037;-58
2021/11/07 03:14:25;;;;;;;30.60;3.97;;;;;;;;;;4984400;28;20124;-59
2021/11/07 03:16:51;;;;;;;27.83;3.15;;;;;;;;;;4999494;28;20078;-59
2021/11/07 03:19:18;;;;;;;22.45;3.60;;;;;;;;;;4978337;28;20029;-58
2021/11/07 03:21:49;;;;;;;43.90;4.35;;;;;;;;;;4997545;28;20134;-59
2021/11/07 03:24:16;;;;;;;26.92;3.72;;;;;;;;;;4996737;28;20510;-58
2021/11/07 03:26:44;;;;;;;28.85;3.55;;;;;;;;;;4987171;28;20025;-58
2021/11/07 03:29:11;;;;;;;33.58;4.47;;;;;;;;;;4989132;28;20029;-60
2021/11/07 03:34:09;;;;;;;29.75;3.63;;;;;;;;;;4998611;28;20040;-60
2021/11/07 03:36:48;;;;;;;17.75;3.38;;;;;;;;;;4999439;28;20029;-60
2021/11/07 03:39:19;;;;;;;30.05;3.80;;;;;;;;;;4979653;28;20065;-58
2021/11/07 03:41:49;;;;;;;33.53;3.08;;;;;;;;;;4982216;28;20029;-59
2021/11/07 03:44:19;;;;;;;28.95;3.35;;;;;;;;;;4999364;28;20139;-61
2021/11/07 03:46:48;;;;;;;30.90;2.63;;;;;;;;;;4984501;28;20029;-59
2021/11/07 03:49:17;;;;;;;27.95;2.75;;;;;;;;;;4997462;28;20072;-57
2021/11/07 03:51:44;;;;;;;16.35;2.67;;;;;;;;;;4993870;28;20132;-58
2021/11/07 03:54:12;;;;;;;19.55;3.08;;;;;;;;;;4978401;28;20437;-58
2021/11/07 03:56:37;;;;;;;31.33;2.83;;;;;;;;;;4987491;28;20057;-61
2021/11/07 03:59:06;;;;;;;26.23;2.92;;;;;;;;;;4996333;28;20038;-60
2021/11/07 04:01:32;;;;;;;28.73;2.95;;;;;;;;;;4969800;28;20035;-59
2021/11/07 04:03:58;;;;;;;15.70;2.58;;;;;;;;;;4998480;28;20111;-59
2021/11/07 04:06:25;;;;;;;29.15;2.67;;;;;;;;;;4980610;28;20036;-59
2021/11/07 04:08:51;;;;;;;35.47;3.90;;;;;;;;;;4965544;28;20037;-58
2021/11/07 04:11:19;;;;;;;13.13;2.78;;;;;;;;;;4981889;28;20033;-59
2021/11/07 04:13:47;;;;;;;27.17;2.83;;;;;;;;;;4998143;28;20697;-60
2021/11/07 04:16:12;;;;;;;15.02;2.20;;;;;;;;;;4969874;28;20038;-58
2021/11/07 04:18:39;;;;;;;19.23;2.85;;;;;;;;;;4995937;28;20223;-59
2021/11/07 04:21:05;;;;;;;22.55;3.13;;;;;;;;;;4963984;28;20034;-59
2021/11/07 04:23:36;;;;;;;20.83;2.80;;;;;;;;;;5000466;28;20022;-59
2021/11/07 04:26:05;;;;;;;28.08;2.35;;;;;;;;;;4994046;28;20138;-58
2021/11/07 04:28:31;;;;;;;22.13;2.08;;;;;;;;;;4978618;28;20465;-58
2021/11/07 04:30:58;;;;;;;18.50;2.25;;;;;;;;;;5000809;28;20045;-59
2021/11/07 04:33:27;;;;;;;19.42;2.67;;;;;;;;;;4999488;28;20086;-60
2021/11/07 04:35:55;;;;;;;32.10;2.55;;;;;;;;;;4999925;28;20053;-59
2021/11/07 04:38:27;;;;;;;20.48;2.95;;;;;;;;;;4998318;28;20113;-58
2021/11/07 04:40:53;;;;;;;16.92;2.17;;;;;;;;;;4997328;28;20128;-59
2021/11/07 04:43:21;;;;;;;28.48;2.70;;;;;;;;;;4966677;28;20396;-58
2021/11/07 04:45:46;;;;;;;11.32;1.83;;;;;;;;;;4964169;28;20037;-59
2021/11/07 04:48:14;;;;;;;19.48;2.10;;;;;;;;;;4970025;28;20527;-60
2021/11/07 04:50:40;;;;;;;13.10;1.80;;;;;;;;;;4978420;28;20057;-58
2021/11/07 04:53:10;;;;;;;24.40;2.67;;;;;;;;;;4980892;28;20029;-58
2021/11/07 04:55:37;;;;;;;23.95;2.70;;;;;;;;;;4996218;28;21225;-59
2021/11/07 04:58:03;;;;;;;8.60;2.05;;;;;;;;;;4998754;28;21161;-59
2021/11/07 05:00:32;;;;;;;20.77;1.63;;;;;;;;;;4979937;28;20156;-60
2021/11/07 05:03:01;;;;;;;15.95;1.75;;;;;;;;;;4977974;28;20036;-58
2021/11/07 05:05:26;;;;;;;19.42;2.13;;;;;;;;;;4978119;28;20499;-58
2021/11/07 05:07:55;;;;;;;15.25;1.95;;;;;;;;;;4970304;28;20037;-58
2021/11/07 05:10:21;;;;;;;17.73;1.50;;;;;;;;;;4983445;28;20131;-58
2021/11/07 05:12:52;;;;;;;12.50;1.58;;;;;;;;;;4994312;28;20450;-58
2021/11/07 05:15:18;;;;;;;9.15;1.75;;;;;;;;;;4997989;28;20033;-58
2021/11/07 05:17:43;;;;;;;11.50;1.80;;;;;;;;;;4983829;28;20037;-59
2021/11/07 05:20:09;;;;;;;13.45;1.30;;;;;;;;;;4992083;28;20084;-58
2021/11/07 05:22:35;;;;;;;14.43;1.83;;;;;;;;;;4997234;28;20032;-59
2021/11/07 05:25:01;;;;;;;23.13;2.08;;;;;;;;;;4971464;28;20034;-60
2021/11/07 05:27:29;;;;;;;14.18;1.70;;;;;;;;;;4981610;28;20033;-59
2021/11/07 05:29:54;;;;;;;15.52;1.98;;;;;;;;;;4999343;28;20130;-58
2021/11/07 05:32:20;;;;;;;15.55;1.77;;;;;;;;;;4972426;28;20176;-58
2021/11/07 05:34:46;;;;;;;20.48;2.20;;;;;;;;;;4999077;28;20100;-59
2021/11/07 05:37:12;;;;;;;15.43;2.30;;;;;;;;;;4987728;28;20044;-58
2021/11/07 05:39:38;;;;;;;25.08;2.22;;;;;;;;;;4995899;28;20464;-61
2021/11/07 05:42:03;;;;;;;9.10;1.20;;;;;;;;;;4997548;28;20021;-59
2021/11/07 05:44:31;;;;;;;9.45;1.45;;;;;;;;;;4978188;28;20828;-59
2021/11/07 05:46:59;;;;;;;13.32;2.08;;;;;;;;;;4996810;28;20489;-58
2021/11/07 05:49:24;;;;;;;18.15;2.13;;;;;;;;;;4996436;28;20041;-59
2021/11/07 05:51:50;;;;;;;9.68;1.98;;;;;;;;;;4994944;28;20050;-60
2021/11/07 05:54:15;;;;;;;6.03;1.60;;;;;;;;;;4995170;28;20034;-60
2021/11/07 05:56:45;;;;;;;10.82;1.52;;;;;;;;;;4986914;28;20034;-60
2021/11/07 05:59:11;;;;;;;14.40;2.10;;;;;;;;;;4967972;28;20127;-59
2021/11/07 06:01:36;;;;;;;13.10;2.03;;;;;;;;;;4967601;28;20034;-64
2021/11/07 06:04:03;;;;;;;13.75;1.30;;;;;;;;;;4994241;28;20081;-59
2021/11/07 06:06:34;;;;;;;10.38;1.48;;;;;;;;;;4997804;28;20029;-60
2021/11/07 06:09:01;;;;;;;17.25;2.08;;;;;;;;;;4976098;28;20761;-59
2021/11/07 06:11:29;;;;;;;20.55;1.95;;;;;;;;;;4970282;28;20168;-59
2021/11/07 06:13:55;;;;;;;10.52;1.50;;;;;;;;;;4970835;28;20074;-60
2021/11/07 06:16:21;;;;;;;16.00;1.65;;;;;;;;;;4996680;28;20115;-60
2021/11/07 06:18:47;;;;;;;12.82;1.30;;;;;;;;;;4980000;28;20045;-59
2021/11/07 06:21:13;;;;;;;12.07;1.35;;;;;;;;;;4998013;28;20148;-60
2021/11/07 06:23:39;;;;;;;25.17;2.10;;;;;;;;;;4970730;28;20404;-60
2021/11/07 06:26:05;;;;;;;19.23;2.00;;;;;;;;;;4983066;28;20058;-60
2021/11/07 06:28:31;;;;;;;27.98;1.80;;;;;;;;;;5000869;28;20069;-60
2021/11/07 06:31:04;;;;;;;7.55;1.25;;;;;;;;;;4985166;28;20040;-60
2021/11/07 06:33:30;;;;;;;18.58;1.80;;;;;;;;;;4971050;28;20029;-59
2021/11/07 06:35:56;;;;;;;24.45;2.80;;;;;;;;;;4982357;28;20082;-61
2021/11/07 06:38:26;;;;;;;16.98;1.38;;;;;;;;;;5000239;28;20029;-61
2021/11/07 06:40:52;;;;;;;15.90;1.98;;;;;;;;;;4993548;28;20037;-61
2021/11/07 06:43:24;;;;;;;16.40;1.55;;;;;;;;;;4987153;28;20029;-60
2021/11/07 06:49:49;;;;;;;25.48;2.50;;;;;;;;;;5002035;28;20060;-58
2021/11/07 06:52:15;;;;;;;17.45;2.42;;;;;;;;;;4964711;28;20366;-59
2021/11/07 06:54:44;;;;;;;20.58;2.92;;;;;;;;;;4964017;28;20144;-60
2021/11/07 06:57:11;;;;;;;19.65;2.28;;;;;;;;;;4976887;28;20056;-58
2021/11/07 06:59:37;;;;;;;15.70;1.73;;;;;;;;;;4961660;28;20939;-60
2021/11/07 07:02:03;;;;;;;24.33;2.70;;;;;;;;;;4964415;28;20100;-61
2021/11/07 07:04:30;;;;;;;17.98;2.20;;;;;;;;;;4958325;28;20022;-61
2021/11/07 07:07:17;;;;;;;30.52;2.30;;;;;;;;;;4954211;28;20042;-60
2021/11/07 07:09:54;;;;;;;12.63;1.58;;;;;;;;;;4977210;28;20034;-58
2021/11/07 07:15:11;;;;;;;14.98;1.40;;;;;;;;;;4973039;28;20045;-58
2021/11/07 07:31:28;;;;;;;15.15;1.88;;;;;;;;;;4928114;28;20039;-60
2021/11/07 07:34:08;;;;;;;11.13;1.88;;;;;;;;;;4929127;28;20069;-60
2021/11/07 07:36:35;;;;;;;20.42;2.63;;;;;;;;;;4961534;28;20161;-64
2021/11/07 07:39:04;;;;;;;11.70;2.05;;;;;;;;;;4973408;28;20158;-59
2021/11/07 07:41:29;;;;;;;9.73;2.08;;;;;;;;;;4959881;28;20038;-63
2021/11/07 07:44:02;;;;;;;15.63;1.65;;;;;;;;;;4945000;28;20066;-61
2021/11/07 07:46:30;;;;;;;9.85;1.55;;;;;;;;;;4964391;28;20030;-62
2021/11/07 07:48:57;;;;;;;15.30;2.00;;;;;;;;;;4949859;28;20649;-60
2021/11/07 07:51:28;;;;;;;19.90;1.80;;;;;;;;;;4982114;28;20049;-61
2021/11/07 07:53:59;;;;;;;15.68;2.38;;;;;;;;;;4998623;28;20033;-61
2021/11/07 07:56:26;;;;;;;18.45;2.30;;;;;;;;;;4961979;28;20046;-60
2021/11/07 07:58:51;;;;;;;9.93;1.80;;;;;;;;;;4980733;28;20037;-60
2021/11/07 08:01:16;;;;;;;21.33;2.55;;;;;;;;;;4970242;28;20045;-59
2021/11/07 08:03:43;;;;;;;20.38;2.47;;;;;;;;;;4983223;28;20936;-60
2021/11/07 08:06:08;;;;;;;13.70;2.20;;;;;;;;;;4998249;28;20037;-62
2021/11/07 08:08:36;;;;;;;21.30;2.22;;;;;;;;;;4987651;28;20255;-63
2021/11/07 08:11:02;;;;;;;18.02;2.90;;;;;;;;;;4971432;28;20578;-62
2021/11/07 08:13:27;;;;;;;13.07;2.30;;;;;;;;;;4997569;28;20044;-60
2021/11/07 08:15:55;;;;;;;15.80;2.47;;;;;;;;;;4979325;28;21326;-60
2021/11/07 08:18:21;;;;;;;14.10;2.28;;;;;;;;;;4985956;28;20026;-60
2021/11/07 08:20:51;;;;;;;13.40;2.03;;;;;;;;;;4997522;28;20033;-61
2021/11/07 08:23:22;;;;;;;14.70;2.20;;;;;;;;;;4995919;28;20029;-62
2021/11/07 08:25:52;;;;;;;18.65;2.47;;;;;;;;;;4996958;28;20071;-60
2021/11/07 08:28:21;;;;;;;22.90;2.22;;;;;;;;;;4967302;28;20040;-62
2021/11/07 08:30:55;;;;;;;15.07;1.58;;;;;;;;;;4965172;28;20860;-61
2021/11/07 08:33:24;;;;;;;13.40;1.92;;;;;;;;;;4978203;28;20108;-62
2021/11/07 08:35:52;;;;;;;13.45;2.72;;;;;;;;;;4976919;28;20033;-60
2021/11/07 08:38:24;;;;;;;17.65;2.63;;;;;;;;;;4992341;28;20508;-59
2021/11/07 08:40:51;;;;;;;22.00;2.38;;;;;;;;;;4976878;28;20167;-61
2021/11/07 09:05:11;;;;;;;3.50;1.20;;;;;;;;;;4978019;28;20045;-58
2021/11/07 09:10:33;;;;;;;10.10;1.38;;;;;;;;;;4985741;28;20046;-57
2021/11/07 09:13:00;;;;;;;13.95;2.05;;;;;;;;;;4981992;28;20116;-58
2021/11/07 09:15:27;;;;;;;10.60;1.65;;;;;;;;;;4993310;28;20913;-57
2021/11/07 09:17:57;;;;;;;7.75;1.15;;;;;;;;;;4975925;28;20033;-58
2021/11/07 09:20:31;;;;;;;9.05;2.33;;;;;;;;;;4960725;28;20053;-58
2021/11/07 09:23:06;;;;;;;11.60;1.83;;;;;;;;;;5021431;28;20540;-60
2021/11/07 09:25:41;;;;;;;15.90;1.88;;;;;;;;;;4977237;28;20030;-57
2021/11/07 09:28:13;;;;;;;13.93;1.88;;;;;;;;;;4972892;28;21138;-58
2021/11/07 09:33:22;;;;;;;8.85;1.63;;;;;;;;;;4992546;28;20075;-58
2021/11/07 09:36:11;;;;;;;;;;;;;;;;;;4995299;28;20032;-58
2021/11/07 09:38:51;;;;;;;14.25;2.20;;;;;;;;;;4965550;28;20001;-58
2021/11/07 09:44:10;;;;;;;10.15;1.75;;;;;;;;;;4997735;28;20093;-58
2021/11/07 09:46:50;;;;;;;19.45;2.50;;;;;;;;;;4992903;28;20053;-58
2021/11/07 09:49:28;;;;;;;13.23;2.05;;;;;;;;;;4999056;28;20025;-58
2021/11/07 09:52:02;;;;;;;17.15;2.00;;;;;;;;;;4978336;28;20041;-59
2021/11/07 09:54:30;;;;;;;11.70;1.90;;;;;;;;;;4996944;28;20088;-60
2021/11/07 09:57:01;;;;;;;20.08;2.22;;;;;;;;;;4997112;28;20108;-59
2021/11/07 09:59:30;;;;;;;14.45;1.73;;;;;;;;;;4996420;28;21082;-59
2021/11/07 10:02:00;;;;;;;16.85;2.50;;;;;;;;;;4964215;28;20074;-59
2021/11/07 10:04:35;;;;;;;11.00;1.88;;;;;;;;;;4967141;28;20030;-59
2021/11/07 10:07:22;;;;;;;13.95;1.80;;;;;;;;;;4995677;28;20035;-59
2021/11/07 10:09:59;;;;;;;10.55;2.42;;;;;;;;;;4992566;28;20042;-59
2021/11/07 10:12:40;;;;;;;20.67;2.00;;;;;;;;;;4984596;28;20057;-59
2021/11/07 10:15:10;;;;;;;15.32;1.80;;;;;;;;;;4965262;28;20069;-60
2021/11/07 10:20:42;;;;;;;16.40;2.20;;;;;;;;;;4969309;28;20073;-59
2021/11/07 10:23:18;;;;;;;16.73;2.38;;;;;;;;;;4959489;28;21076;-59
2021/11/07 10:26:06;;;;;;;23.23;2.88;;;;;;;;;;4982375;28;20029;-59
2021/11/07 10:28:37;;;;;;;19.63;2.58;;;;;;;;;;4995598;28;20036;-60
2021/11/07 10:31:03;;;;;;;18.35;2.58;;;;;;;;;;4994180;28;20061;-60
2021/11/07 10:33:49;;;;;;;21.88;2.58;;;;;;;;;;4994044;28;20544;-59
2021/11/07 10:52:29;;;;;;;;;;;;;;;;;;4995960;28;20037;-60
2021/11/07 10:54:58;;;;;;;14.10;1.83;;;;;;;;;;4976316;28;19913;-60
2021/11/07 10:57:30;;;;;;;14.45;1.75;;;;;;;;;;4990778;28;20092;-59
2021/11/07 11:00:14;;;;;;;8.98;1.25;;;;;;;;;;4999002;28;20100;-60
2021/11/07 11:02:42;;;;;;;17.77;2.22;;;;;;;;;;4998932;28;20037;-58
2021/11/07 11:05:09;;;;;;;11.98;1.95;;;;;;;;;;4980188;28;20125;-60
2021/11/07 11:07:56;;;;;;;12.40;1.83;;;;;;;;;;4993451;28;20503;-60
2021/11/07 11:10:29;;;;;;;14.55;1.80;;;;;;;;;;4970351;28;20057;-60
2021/11/07 11:13:13;;;;;;;11.00;1.92;;;;;;;;;;4998309;28;20033;-60
2021/11/07 11:15:51;;;;;;;11.13;2.08;;;;;;;;;;4966056;28;20033;-61
2021/11/07 11:21:35;;;;;;;15.60;2.55;;;;;;;;;;4983369;28;20069;-59
2021/11/07 11:24:20;;;;;;;13.55;2.25;;;;;;;;;;4994087;28;20057;-58
2021/11/07 11:26:58;;;;;;;23.10;2.30;;;;;;;;;;4998943;28;20461;-61
2021/11/07 11:32:29;;;;;;;12.35;1.95;;;;;;;;;;4999082;28;20045;-59
2021/11/07 11:37:57;;;;;;;10.30;1.80;;;;;;;;;;4999223;28;21336;-60
2021/11/07 11:40:35;;;;;;;15.15;2.50;;;;;;;;;;4980672;28;20089;-59
2021/11/07 11:43:07;;;;;;;25.63;2.42;;;;;;;;;;4998745;28;20120;-59
2021/11/07 11:45:37;;;;;;;12.10;2.03;;;;;;;;;;4971013;28;20037;-60
2021/11/07 11:55:50;;;;;;;15.43;2.63;;;;;;;;;;4983113;28;20741;-59
2021/11/07 11:58:38;;;;;;;20.63;2.33;;;;;;;;;;4999774;28;20073;-58
2021/11/07 12:01:13;;;;;;;27.00;2.85;;;;;;;;;;4982646;28;20089;-58
2021/11/07 12:06:51;;;;;;;12.70;1.90;;;;;;;;;;4946819;28;20061;-58
2021/11/07 12:16:58;;;;;;;9.10;1.08;;;;;;;;;;4975927;28;20035;-61
2021/11/07 12:19:35;;;;;;;6.93;0.90;;;;;;;;;;4996509;28;20160;-59
2021/11/07 12:22:08;;;;;;;5.53;1.10;;;;;;;;;;4996451;28;20956;-58
2021/11/07 12:24:54;;;;;;;3.33;0.80;;;;;;;;;;4995443;28;20055;-59
2021/11/07 12:27:27;;;;;;;4.72;1.00;;;;;;;;;;4996672;28;20025;-59
2021/11/07 12:29:58;;;;;;;6.63;0.98;;;;;;;;;;4984836;28;20096;-59
2021/11/07 12:32:33;;;;;;;5.97;1.20;;;;;;;;;;4988301;28;20124;-59
2021/11/07 12:40:43;;;;;;;8.93;1.35;;;;;;;;;;4997221;28;20092;-59
2021/11/07 12:43:11;;;;;;;13.95;2.17;;;;;;;;;;4977316;28;20041;-59
2021/11/07 12:45:46;;;;;;;15.30;2.20;;;;;;;;;;4981395;28;20026;-58
2021/11/07 12:48:16;;;;;;;14.38;1.70;;;;;;;;;;4998536;28;20018;-59
2021/11/07 12:50:58;;;;;;;16.05;2.25;;;;;;;;;;4998341;28;20054;-59
2021/11/07 12:53:28;;;;;;;15.55;2.15;;;;;;;;;;4985883;28;20037;-59
2021/11/07 12:55:54;;;;;;;23.73;3.00;;;;;;;;;;4985285;28;20033;-59
2021/11/07 12:58:22;;;;;;;14.27;2.45;;;;;;;;;;4987001;28;20045;-59
2021/11/07 13:00:48;;;;;;;20.77;2.97;;;;;;;;;;4992517;28;20072;-58
2021/11/07 13:03:15;;;;;;;11.75;1.92;;;;;;;;;;4977719;28;21068;-59
2021/11/07 13:05:43;;;;;;;17.92;2.33;;;;;;;;;;4996211;28;20030;-58
2021/11/07 13:08:18;;;;;;;18.67;1.95;;;;;;;;;;4981722;28;20768;-59
2021/11/07 13:10:55;;;;;;;14.55;1.65;;;;;;;;;;4986309;28;20037;-58
2021/11/07 13:31:44;;;;;;;22.45;2.90;;;;;;;;;;4996219;28;20135;-59
2021/11/07 13:34:11;;;;;;;18.17;2.38;;;;;;;;;;4996337;28;20050;-59
2021/11/07 13:36:41;;;;;;;11.48;2.20;;;;;;;;;;4994547;28;20030;-60
2021/11/07 13:39:06;;;;;;;14.73;2.10;;;;;;;;;;4984657;28;20018;-60
2021/11/07 13:41:33;;;;;;;21.02;2.17;;;;;;;;;;4961437;28;20493;-58
2021/11/07 13:44:01;;;;;;;7.82;1.60;;;;;;;;;;4997029;28;20358;-59
2021/11/07 13:46:29;;;;;;;18.60;2.10;;;;;;;;;;4980172;28;20024;-60
2021/11/07 13:49:04;;;;;;;15.98;1.75;;;;;;;;;;4983806;28;20098;-60
2021/11/07 13:51:31;;;;;;;10.57;2.33;;;;;;;;;;4977985;28;20160;-58
2021/11/07 13:54:05;;;;;;;16.00;2.17;;;;;;;;;;4976901;28;20045;-60
2021/11/07 13:56:31;;;;;;;12.35;1.60;;;;;;;;;;4982270;28;20932;-58
2021/11/07 13:59:01;;;;;;;15.40;1.83;;;;;;;;;;4997160;28;20831;-59
2021/11/07 14:01:32;;;;;;;25.25;2.63;;;;;;;;;;4979693;28;20053;-59
2021/11/07 14:04:02;;;;;;;14.98;1.52;;;;;;;;;;4984797;28;20091;-61
2021/11/07 14:06:38;;;;;;;10.35;1.63;;;;;;;;;;4968469;28;20116;-58
2021/11/07 14:09:04;;;;;;;6.00;1.80;;;;;;;;;;4966240;28;20171;-61
2021/11/07 14:11:34;;;;;;;14.95;1.70;;;;;;;;;;4968299;28;20036;-60
2021/11/07 14:14:02;;;;;;;15.60;1.85;;;;;;;;;;4994743;28;20034;-59
2021/11/07 14:16:33;;;;;;;16.55;2.28;;;;;;;;;;4994486;28;20037;-59
2021/11/07 14:19:01;;;;;;;22.95;2.88;;;;;;;;;;4993866;28;20039;-59
2021/11/07 14:21:30;;;;;;;15.20;2.00;;;;;;;;;;4995525;28;20116;-59
2021/11/07 14:24:06;;;;;;;15.32;3.00;;;;;;;;;;4995092;28;20588;-60
2021/11/07 14:26:43;;;;;;;17.20;2.42;;;;;;;;;;4977864;28;20052;-60
2021/11/07 14:50:55;;;;;;;14.07;1.98;;;;;;;;;;5000026;28;20049;-59
2021/11/07 14:53:28;;;;;;;12.15;2.65;;;;;;;;;;5000521;28;20033;-59
2021/11/07 14:58:56;;;;;;;12.65;1.98;;;;;;;;;;4999719;28;20056;-58
2021/11/07 15:03:57;;;;;;;15.55;1.98;;;;;;;;;;4980746;28;20034;-60
2021/11/07 15:06:43;;;;;;;15.93;2.10;;;;;;;;;;4972399;28;20053;-59
2021/11/07 15:09:10;;;;;;;;;;;;;;;;;;4969525;28;20045;-59
2021/11/07 15:15:04;;;;;;;5.60;1.80;;;;;;;;;;4985476;28;20042;-59
2021/11/07 15:18:04;;;;;;;12.20;1.67;;;;;;;;;;4979502;28;20045;-59
2021/11/07 15:20:21;;;;;;;8.88;1.13;;;;;;;;;;4985656;28;20083;-59
2021/11/07 15:22:50;;;;;;;10.55;0.88;;;;;;;;;;4996528;28;20128;-59
2021/11/07 15:25:20;;;;;;;10.57;1.63;;;;;;;;;;4995496;28;20088;-60
2021/11/07 15:27:59;;;;;;;9.07;1.10;;;;;;;;;;4981683;28;20668;-60
2021/11/07 15:30:27;;;;;;;10.07;1.10;;;;;;;;;;4994708;28;20120;-59
2021/11/07 15:32:55;;;;;;;4.70;0.85;;;;;;;;;;4995405;28;20124;-60
2021/11/07 15:35:22;;;;;;;17.08;1.80;;;;;;;;;;4997528;28;20698;-58
2021/11/07 15:37:48;;;;;;;19.55;1.98;;;;;;;;;;4986492;28;20733;-58
2021/11/07 15:40:32;;;;;;;6.82;1.48;;;;;;;;;;4996437;28;20151;-59
2021/11/07 15:42:59;;;;;;;14.38;1.45;;;;;;;;;;4999062;28;20037;-59
2021/11/07 15:45:27;;;;;;;9.43;2.20;;;;;;;;;;4979810;28;20116;-59
2021/11/07 15:47:58;;;;;;;17.15;1.83;;;;;;;;;;4999874;28;20128;-59
2021/11/07 15:53:17;;;;;;;20.17;2.25;;;;;;;;;;4998606;28;20529;-59
2021/11/07 16:19:36;;;;;;;7.28;1.42;;;;;;;;;;4968284;28;20045;-59
2021/11/07 16:22:02;;;;;;;35.35;1.92;;;;;;;;;;5011882;28;20132;-59
2021/11/07 16:24:28;;;;;;;11.43;1.55;;;;;;;;;;4990762;28;20116;-60
2021/11/07 16:27:03;;;;;;;15.27;1.60;;;;;;;;;;4983588;28;20049;-58
2021/11/07 16:29:31;;;;;;;9.75;1.13;;;;;;;;;;4981926;28;20787;-59
2021/11/07 16:32:14;;;;;;;11.20;1.33;;;;;;;;;;5005973;28;20033;-60
2021/11/07 16:35:02;;;;;;;10.43;1.33;;;;;;;;;;5001716;28;20134;-60
2021/11/07 16:43:04;;;;;;;10.27;1.35;;;;;;;;;;5006321;28;20026;-58
2021/11/07 16:45:30;;;;;;;19.15;1.38;;;;;;;;;;5005178;28;20032;-58
2021/11/07 16:48:09;;;;;;;10.90;1.13;;;;;;;;;;4995229;28;20085;-62
2021/11/07 16:54:39;;;;;;;8.70;2.00;;;;;;;;;;5011431;22;20053;-58
2021/11/07 16:57:25;;;;;;;20.13;1.85;;;;;;;;;;4977187;28;20026;-59
2021/11/07 17:00:06;;;;;;;13.85;2.20;;;;;;;;;;4958535;28;21920;-59
2021/11/07 17:02:38;;;;;;;16.88;2.05;;;;;;;;;;4950747;28;20042;-59
2021/11/07 17:10:39;;;;;;;21.85;2.72;;;;;;;;;;4951970;28;20077;-58
2021/11/07 17:13:11;;;;;;;14.13;2.28;;;;;;;;;;4967536;28;20034;-59
2021/11/07 17:15:53;;;;;;;23.35;2.90;;;;;;;;;;4964586;28;20129;-59
2021/11/07 17:18:22;;;;;;;17.45;2.33;;;;;;;;;;4946833;28;20537;-59
2021/11/07 17:26:02;;;;;;;22.65;2.90;;;;;;;;;;4966586;28;20054;-59
2021/11/07 17:28:54;;;;;;;18.20;2.00;;;;;;;;;;4964005;28;20113;-59
2021/11/07 17:34:07;;;;;;;14.95;1.92;;;;;;;;;;4962820;28;20038;-59
2021/11/07 17:36:56;;;;;;;14.25;1.90;;;;;;;;;;4965349;28;20040;-60
2021/11/07 17:55:43;;;;;;;14.40;2.13;;;;;;;;;;4963702;28;20050;-60
2021/11/07 17:58:09;;;;;;;11.60;1.60;;;;;;;;;;4961676;28;20037;-59
2021/11/07 18:00:41;;;;;;;17.73;2.50;;;;;;;;;;4965236;28;20080;-59
2021/11/07 18:03:07;;;;;;;17.08;2.22;;;;;;;;;;4964017;28;20026;-59
2021/11/07 18:05:38;;;;;;;21.77;2.17;;;;;;;;;;4964716;28;20031;-59
2021/11/07 18:08:18;;;;;;;23.20;1.92;;;;;;;;;;4950055;28;20374;-59
2021/11/07 18:10:49;;;;;;;15.15;2.00;;;;;;;;;;4970007;28;20125;-59
2021/11/07 18:13:29;;;;;;;8.20;1.77;;;;;;;;;;4971080;28;20114;-58
2021/11/07 18:15:55;;;;;;;26.52;1.63;;;;;;;;;;4966157;28;20046;-59
2021/11/07 18:18:43;;;;;;;22.17;1.92;;;;;;;;;;4969363;28;20038;-60
2021/11/07 18:21:11;;;;;;;6.75;1.38;;;;;;;;;;4968659;28;20085;-58
2021/11/07 18:23:41;;;;;;;14.57;2.63;;;;;;;;;;4968796;28;20532;-59
2021/11/07 18:26:12;;;;;;;17.38;2.05;;;;;;;;;;4968391;28;20046;-59
2021/11/07 18:28:43;;;;;;;10.48;1.35;;;;;;;;;;4969418;28;20113;-58
2021/11/07 18:31:11;;;;;;;8.40;1.27;;;;;;;;;;4949115;28;20117;-59
2021/11/07 18:33:39;;;;;;;14.40;1.73;;;;;;;;;;4966627;28;20038;-59
2021/11/07 18:36:04;;;;;;;21.23;1.67;;;;;;;;;;4964519;28;20563;-59
2021/11/07 18:38:33;;;;;;;20.42;2.33;;;;;;;;;;4950393;28;20092;-59
2021/11/07 18:41:02;;;;;;;41.05;2.58;;;;;;;;;;4951013;28;20054;-58
2021/11/07 18:43:29;;;;;;;17.30;2.05;;;;;;;;;;4964085;28;21363;-59
2021/11/07 18:45:55;;;;;;;9.90;1.65;;;;;;;;;;4965678;28;20077;-60
2021/11/07 18:48:24;;;;;;;9.60;1.10;;;;;;;;;;4968298;28;20038;-60
2021/11/07 18:50:57;;;;;;;6.72;1.08;;;;;;;;;;4967973;28;20075;-60
2021/11/07 18:53:25;;;;;;;17.80;1.95;;;;;;;;;;4949931;28;20144;-58
2021/11/07 18:55:56;;;;;;;16.20;2.10;;;;;;;;;;4965929;28;20074;-60